createdAt,value
2023-01-13T00:02:13.298Z,9.33
2023-01-13T00:04:44.366Z,9.35
2023-01-13T00:07:15.069Z,9.34
2023-01-13T00:09:46.003Z,9.40
2023-01-13T00:12:16.744Z,9.35
2023-01-13T00:14:48.502Z,9.39
2023-01-13T00:17:20.220Z,9.37
2023-01-13T00:19:51.356Z,9.44
2023-01-13T00:22:23.943Z,9.50
2023-01-13T00:24:54.631Z,9.43
2023-01-13T00:27:25.443Z,9.50
2023-01-13T00:29:56.586Z,9.45
2023-01-13T00:32:28.766Z,9.54
2023-01-13T00:35:02.483Z,9.48
2023-01-13T00:37:33.081Z,9.49
2023-01-13T00:40:09.265Z,9.42
2023-01-13T00:42:58.146Z,9.40
2023-01-13T00:45:30.274Z,9.44
2023-01-13T00:48:00.972Z,9.34
2023-01-13T00:50:31.565Z,9.34
2023-01-13T00:53:03.064Z,9.42
2023-01-13T00:55:35.520Z,9.46
2023-01-13T00:58:10.556Z,9.46
2023-01-13T01:00:39.024Z,9.46
2023-01-13T01:03:11.571Z,9.52
2023-01-13T01:05:43.247Z,9.46
2023-01-13T01:08:13.876Z,9.59
2023-01-13T01:10:44.513Z,9.60
2023-01-13T01:13:17.441Z,9.52
2023-01-13T01:15:48.610Z,9.51
2023-01-13T01:18:19.309Z,9.56
2023-01-13T01:20:50.047Z,9.60
2023-01-13T01:23:20.805Z,9.60
2023-01-13T01:25:56.497Z,9.57
2023-01-13T01:28:27.272Z,9.58
2023-01-13T01:31:02.370Z,9.69
2023-01-13T01:33:33.054Z,9.61
2023-01-13T01:36:05.425Z,9.66
2023-01-13T01:38:38.154Z,9.70
2023-01-13T01:41:09.920Z,9.71
2023-01-13T01:44:00.373Z,9.72
2023-01-13T01:46:38.485Z,9.62
2023-01-13T01:49:22.070Z,9.76
2023-01-13T01:52:14.356Z,9.71
2023-01-13T01:54:54.680Z,9.81
2023-01-13T01:57:28.287Z,9.72
2023-01-13T02:00:03.998Z,9.72
2023-01-13T02:02:36.621Z,9.71
2023-01-13T02:05:16.366Z,9.76
2023-01-13T02:07:46.671Z,9.85
2023-01-13T02:10:21.774Z,9.76
2023-01-13T02:12:55.099Z,9.84
2023-01-13T02:15:46.927Z,9.71
2023-01-13T02:18:29.563Z,9.77
2023-01-13T02:21:15.220Z,9.73
2023-01-13T02:24:40.487Z,9.70
2023-01-13T02:27:43.879Z,9.70
2023-01-13T02:30:38.023Z,9.56
2023-01-13T02:33:39.911Z,9.50
2023-01-13T02:36:31.977Z,9.56
2023-01-13T02:39:14.707Z,9.45
2023-01-13T02:42:15.307Z,9.50
2023-01-13T02:44:52.785Z,9.72
2023-01-13T02:47:25.854Z,9.56
2023-01-13T02:50:10.228Z,9.64
2023-01-13T02:52:50.791Z,9.68
2023-01-13T02:55:24.447Z,9.67
2023-01-13T02:57:57.138Z,9.68
2023-01-13T03:00:31.172Z,9.76
2023-01-13T03:03:01.887Z,9.68
2023-01-13T03:05:37.216Z,9.68
2023-01-13T03:08:23.074Z,9.77
2023-01-13T03:11:13.501Z,9.60
2023-01-13T03:14:02.641Z,9.66
2023-01-13T03:16:56.030Z,9.70
2023-01-13T03:19:42.706Z,9.70
2023-01-13T03:22:24.859Z,9.72
2023-01-13T03:25:00.244Z,9.60
2023-01-13T03:27:34.182Z,9.64
2023-01-13T03:30:29.775Z,9.64
2023-01-13T03:33:15.926Z,9.62
2023-01-13T03:35:52.357Z,9.68
2023-01-13T03:38:26.331Z,9.49
2023-01-13T03:40:59.841Z,9.56
2023-01-13T03:43:51.275Z,9.56
2023-01-13T03:46:28.053Z,9.43
2023-01-13T03:49:05.169Z,9.60
2023-01-13T03:51:41.125Z,9.57
2023-01-13T03:54:17.084Z,9.56
2023-01-13T03:56:52.178Z,9.46
2023-01-13T03:59:31.537Z,9.44
2023-01-13T04:02:05.125Z,9.44
2023-01-13T04:04:46.465Z,9.62
2023-01-13T04:07:26.001Z,9.57
2023-01-13T04:10:01.804Z,9.50
2023-01-13T04:12:52.559Z,9.50
2023-01-13T04:15:28.060Z,9.36
2023-01-13T04:18:13.878Z,9.46
2023-01-13T04:20:46.954Z,9.34
2023-01-13T04:23:18.027Z,9.54
2023-01-13T04:25:50.805Z,9.57
2023-01-13T04:28:22.146Z,9.45
2023-01-13T04:30:53.309Z,9.42
2023-01-13T04:33:24.882Z,9.36
2023-01-13T04:35:59.642Z,9.34
2023-01-13T04:38:30.270Z,9.30
2023-01-13T04:41:00.939Z,9.34
2023-01-13T04:43:31.596Z,9.40
2023-01-13T04:46:02.093Z,9.17
2023-01-13T04:48:32.687Z,9.16
2023-01-13T04:51:04.904Z,9.17
2023-01-13T04:53:37.682Z,9.18
2023-01-13T04:56:10.160Z,9.30
2023-01-13T04:58:42.716Z,9.32
2023-01-13T05:01:13.824Z,9.28
2023-01-13T05:03:46.032Z,9.34
2023-01-13T05:06:18.355Z,9.34
2023-01-13T05:08:50.504Z,9.44
2023-01-13T05:11:40.037Z,9.48
2023-01-13T05:14:30.470Z,9.54
2023-01-13T05:17:08.772Z,9.60
2023-01-13T05:19:40.975Z,9.65
2023-01-13T05:22:29.408Z,9.79
2023-01-13T05:25:19.290Z,9.61
2023-01-13T05:28:00.182Z,9.57
2023-01-13T05:30:33.585Z,9.52
2023-01-13T05:33:06.459Z,9.66
2023-01-13T05:35:40.076Z,9.55
2023-01-13T05:38:14.073Z,9.63
2023-01-13T05:41:03.413Z,9.59
2023-01-13T05:43:35.336Z,9.64
2023-01-13T05:46:09.102Z,9.50
2023-01-13T05:48:43.713Z,9.30
2023-01-13T05:51:16.909Z,9.24
2023-01-13T05:53:47.431Z,9.16
2023-01-13T05:56:20.963Z,9.14
2023-01-13T05:58:51.520Z,9.04
2023-01-13T06:01:22.122Z,9.06
2023-01-13T06:03:52.681Z,9.04
2023-01-13T06:06:23.510Z,9.02
2023-01-13T06:08:54.090Z,8.98
2023-01-13T06:11:25.622Z,9.04
2023-01-13T06:13:58.941Z,8.96
2023-01-13T06:16:31.126Z,8.90
2023-01-13T06:19:01.529Z,8.96
2023-01-13T06:21:33.459Z,8.94
2023-01-13T06:24:04.235Z,8.97
2023-01-13T06:26:41.960Z,8.94
2023-01-13T06:29:17.242Z,8.90
2023-01-13T06:31:47.920Z,8.88
2023-01-13T06:34:21.878Z,9.06
2023-01-13T06:36:54.749Z,9.10
2023-01-13T06:39:29.890Z,9.06
2023-01-13T06:42:18.693Z,9.10
2023-01-13T06:44:51.594Z,9.14
2023-01-13T06:47:23.233Z,9.24
2023-01-13T06:49:54.087Z,9.36
2023-01-13T06:52:24.686Z,9.64
2023-01-13T06:54:55.215Z,9.39
2023-01-13T06:57:28.119Z,9.46
2023-01-13T06:59:59.129Z,9.62
2023-01-13T07:02:33.307Z,9.62
2023-01-13T07:05:03.841Z,9.54
2023-01-13T07:07:34.739Z,9.46
2023-01-13T07:10:08.230Z,9.69
2023-01-13T07:13:00.995Z,9.65
2023-01-13T07:15:33.312Z,9.74
2023-01-13T07:18:04.237Z,9.64
2023-01-13T07:20:36.493Z,9.64
2023-01-13T07:23:07.104Z,9.64
2023-01-13T07:25:38.078Z,9.64
2023-01-13T07:28:11.932Z,9.62
2023-01-13T07:30:42.488Z,9.76
2023-01-13T07:33:14.464Z,9.77
2023-01-13T07:35:45.793Z,9.71
2023-01-13T07:38:16.825Z,9.62
2023-01-13T07:40:47.540Z,9.86
2023-01-13T07:43:33.173Z,9.88
2023-01-13T07:46:05.642Z,9.72
2023-01-13T07:48:38.191Z,9.78
2023-01-13T07:51:10.915Z,9.62
2023-01-13T07:53:41.509Z,9.63
2023-01-13T07:56:13.359Z,9.63
2023-01-13T07:58:45.224Z,9.74
2023-01-13T08:01:17.892Z,9.64
2023-01-13T08:03:51.098Z,9.74
2023-01-13T08:06:21.947Z,9.72
2023-01-13T08:08:53.402Z,9.74
2023-01-13T08:11:26.584Z,9.93
2023-01-13T08:14:01.313Z,9.88
2023-01-13T08:16:34.140Z,9.94
2023-01-13T08:19:09.436Z,9.96
2023-01-13T08:21:39.867Z,10.24
2023-01-13T08:24:12.240Z,10.08
2023-01-13T08:26:44.359Z,10.04
2023-01-13T08:29:17.829Z,10.00
2023-01-13T08:31:48.946Z,9.78
2023-01-13T08:34:25.367Z,9.92
2023-01-13T08:36:59.389Z,9.86
2023-01-13T08:39:36.004Z,9.78
2023-01-13T08:42:11.160Z,9.89
2023-01-13T08:44:44.610Z,9.86
2023-01-13T08:47:15.597Z,9.87
2023-01-13T08:49:47.850Z,9.63
2023-01-13T08:52:19.022Z,9.66
2023-01-13T08:54:50.771Z,9.65
2023-01-13T08:57:21.341Z,9.57
2023-01-13T08:59:52.203Z,9.60
2023-01-13T09:02:28.425Z,9.62
2023-01-13T09:05:01.342Z,9.53
2023-01-13T09:07:33.733Z,9.54
2023-01-13T09:10:06.209Z,9.44
2023-01-13T09:12:55.405Z,9.40
2023-01-13T09:15:26.168Z,9.36
2023-01-13T09:17:58.096Z,9.41
2023-01-13T09:20:28.695Z,9.60
2023-01-13T09:22:59.294Z,9.56
2023-01-13T09:25:29.917Z,9.58
2023-01-13T09:28:03.524Z,9.69
2023-01-13T09:30:34.038Z,9.84
2023-01-13T09:33:24.341Z,9.70
2023-01-13T09:36:00.158Z,9.84
2023-01-13T09:38:30.712Z,9.66
2023-01-13T09:41:05.773Z,9.84
2023-01-13T09:43:56.346Z,9.63
2023-01-13T09:46:47.607Z,9.62
2023-01-13T09:49:22.146Z,9.43
2023-01-13T09:52:03.359Z,9.38
2023-01-13T09:54:37.859Z,9.46
2023-01-13T09:57:17.657Z,9.36
2023-01-13T09:59:51.050Z,9.37
2023-01-13T10:02:40.834Z,9.32
2023-01-13T10:05:24.831Z,9.56
2023-01-13T10:08:05.432Z,9.57
2023-01-13T10:10:44.749Z,9.36
2023-01-13T10:13:31.677Z,9.45
2023-01-13T10:16:21.841Z,9.42
2023-01-13T10:19:07.507Z,9.44
2023-01-13T10:22:07.310Z,9.44
2023-01-13T10:25:05.403Z,9.48
2023-01-13T10:27:39.211Z,9.48
2023-01-13T10:30:27.276Z,9.34
2023-01-13T10:33:04.257Z,9.29
2023-01-13T10:35:57.465Z,9.42
2023-01-13T10:38:46.605Z,9.51
2023-01-13T10:41:22.797Z,9.63
2023-01-13T10:44:09.379Z,9.76
2023-01-13T10:46:43.361Z,9.76
2023-01-13T10:49:34.896Z,9.81
2023-01-13T10:52:08.648Z,9.72
2023-01-13T10:54:42.985Z,9.66
2023-01-13T10:57:25.168Z,9.96
2023-01-13T10:59:56.866Z,10.98
2023-01-13T11:02:30.715Z,11.42
2023-01-13T11:05:24.606Z,11.01
2023-01-13T11:07:56.995Z,10.60
2023-01-13T11:10:31.121Z,10.56
2023-01-13T11:13:36.390Z,10.13
2023-01-13T11:16:15.397Z,10.10
2023-01-13T11:19:02.621Z,10.12
2023-01-13T11:21:51.187Z,10.02
2023-01-13T11:24:34.048Z,9.83
2023-01-13T11:27:18.335Z,9.84
2023-01-13T11:29:54.626Z,9.86
2023-01-13T11:32:28.036Z,9.84
2023-01-13T11:35:04.488Z,9.71
2023-01-13T11:37:38.353Z,9.90
2023-01-13T11:40:17.356Z,9.89
2023-01-13T11:43:07.943Z,9.90
2023-01-13T11:45:44.285Z,9.92
2023-01-13T11:48:21.218Z,9.90
2023-01-13T11:50:57.766Z,9.88
2023-01-13T11:53:43.556Z,10.04
2023-01-13T11:56:20.272Z,10.06
2023-01-13T11:59:05.983Z,10.01
2023-01-13T12:01:51.713Z,10.00
2023-01-13T12:04:35.294Z,9.88
2023-01-13T12:07:22.984Z,9.85
2023-01-13T12:10:13.533Z,9.86
2023-01-13T12:13:00.153Z,9.93
2023-01-13T12:15:34.873Z,9.85
2023-01-13T12:18:23.340Z,9.98
2023-01-13T12:21:20.257Z,9.98
2023-01-13T12:24:13.270Z,9.98
2023-01-13T12:26:49.933Z,9.84
2023-01-13T12:29:23.085Z,9.82
2023-01-13T12:31:54.499Z,9.92
2023-01-13T12:34:33.834Z,9.90
2023-01-13T12:37:20.486Z,9.94
2023-01-13T12:39:54.069Z,9.91
2023-01-13T12:42:54.491Z,9.97
2023-01-13T12:45:30.957Z,9.95
2023-01-13T12:48:02.285Z,9.99
2023-01-13T12:50:35.889Z,9.98
2023-01-13T12:53:26.459Z,10.06
2023-01-13T12:56:16.444Z,10.07
2023-01-13T12:58:46.943Z,10.12
2023-01-13T13:01:18.686Z,10.12
2023-01-13T13:04:09.407Z,10.09
2023-01-13T13:06:45.695Z,9.98
2023-01-13T13:09:27.335Z,9.97
2023-01-13T13:12:05.309Z,9.88
2023-01-13T13:14:41.981Z,9.95
2023-01-13T13:17:34.133Z,10.06
2023-01-13T13:20:08.001Z,10.17
2023-01-13T13:22:47.952Z,10.02
2023-01-13T13:25:25.242Z,10.06
2023-01-13T13:28:03.173Z,10.14
2023-01-13T13:30:41.382Z,10.20
2023-01-13T13:33:39.132Z,10.20
2023-01-13T13:36:28.256Z,10.14
2023-01-13T13:39:22.669Z,9.98
2023-01-13T13:42:14.099Z,9.82
2023-01-13T13:45:05.421Z,9.80
2023-01-13T13:47:40.103Z,9.82
2023-01-13T13:50:21.525Z,9.86
2023-01-13T13:52:57.793Z,9.94
2023-01-13T13:55:30.344Z,10.05
2023-01-13T13:58:01.824Z,9.80
2023-01-13T14:00:38.210Z,9.67
2023-01-13T14:03:24.933Z,9.64
2023-01-13T14:06:04.295Z,9.62
2023-01-13T14:08:37.873Z,9.71
2023-01-13T14:11:27.573Z,9.84
2023-01-13T14:14:10.057Z,9.96
2023-01-13T14:16:42.100Z,9.96
2023-01-13T14:19:30.868Z,9.89
2023-01-13T14:22:05.845Z,9.94
2023-01-13T14:24:40.572Z,9.86
2023-01-13T14:27:17.496Z,9.89
2023-01-13T14:29:49.580Z,9.90
2023-01-13T14:32:22.559Z,9.88
2023-01-13T14:34:53.636Z,9.93
2023-01-13T14:37:32.972Z,9.93
2023-01-13T14:40:03.999Z,9.92
2023-01-13T14:42:36.417Z,9.82
2023-01-13T14:45:10.084Z,9.86
2023-01-13T14:47:42.490Z,9.88
2023-01-13T14:50:19.181Z,9.88
2023-01-13T14:52:54.068Z,9.78
2023-01-13T14:55:33.890Z,9.94
2023-01-13T14:58:29.008Z,9.86
2023-01-13T15:01:31.738Z,9.76
2023-01-13T15:04:25.340Z,9.78
2023-01-13T15:07:00.263Z,9.83
2023-01-13T15:09:33.782Z,9.69
2023-01-13T15:12:19.122Z,9.75
2023-01-13T15:14:51.771Z,9.72
2023-01-13T15:17:22.196Z,9.74
2023-01-13T15:19:54.915Z,9.78
2023-01-13T15:22:25.365Z,9.74
2023-01-13T15:24:57.794Z,9.78
2023-01-13T15:27:28.210Z,9.67
2023-01-13T15:29:58.639Z,9.70
2023-01-13T15:32:29.062Z,9.74
2023-01-13T15:34:59.770Z,9.64
2023-01-13T15:37:30.201Z,9.66
2023-01-13T15:40:01.205Z,9.60
2023-01-13T15:42:49.548Z,9.57
2023-01-13T15:45:37.928Z,9.45
2023-01-13T15:48:08.543Z,9.52
2023-01-13T15:50:40.787Z,9.58
2023-01-13T15:53:14.462Z,9.38
2023-01-13T15:55:47.840Z,9.37
2023-01-13T15:58:21.185Z,9.43
2023-01-13T16:00:51.998Z,9.47
2023-01-13T16:03:22.564Z,9.41
2023-01-13T16:05:53.086Z,9.45
2023-01-13T16:08:24.503Z,9.46
2023-01-13T16:10:56.576Z,9.50
2023-01-13T16:13:28.968Z,9.40
2023-01-13T16:16:01.339Z,9.45
2023-01-13T16:18:31.934Z,9.38
2023-01-13T16:21:03.487Z,9.42
2023-01-13T16:23:34.045Z,9.36
2023-01-13T16:26:06.664Z,9.50
2023-01-13T16:28:38.828Z,9.42
2023-01-13T16:31:30.620Z,9.39
2023-01-13T16:34:07.024Z,9.50
2023-01-13T16:36:38.376Z,9.45
2023-01-13T16:39:12.679Z,9.38
2023-01-13T16:41:43.130Z,9.41
2023-01-13T16:44:13.647Z,9.31
2023-01-13T16:46:47.242Z,9.32
2023-01-13T16:49:18.783Z,9.24
2023-01-13T16:51:49.208Z,9.22
2023-01-13T16:54:22.025Z,9.24
2023-01-13T16:56:52.443Z,9.28
2023-01-13T16:59:22.910Z,9.37
2023-01-13T17:01:54.971Z,9.27
2023-01-13T17:04:27.024Z,9.31
2023-01-13T17:07:04.073Z,9.26
2023-01-13T17:09:35.159Z,9.22
2023-01-13T17:12:05.739Z,9.27
2023-01-13T17:14:37.601Z,9.19
2023-01-13T17:17:10.530Z,9.24
2023-01-13T17:19:41.796Z,9.16
2023-01-13T17:22:12.221Z,9.24
2023-01-13T17:24:43.654Z,9.18
2023-01-13T17:27:15.274Z,9.14
2023-01-13T17:29:45.867Z,8.94
2023-01-13T17:32:21.044Z,8.92
2023-01-13T17:34:53.730Z,8.71
2023-01-13T17:37:24.221Z,8.62
2023-01-13T17:39:55.649Z,8.77
2023-01-13T17:42:27.731Z,8.69
2023-01-13T17:44:58.167Z,8.65
2023-01-13T17:47:28.561Z,8.40
2023-01-13T17:49:59.367Z,8.41
2023-01-13T17:52:29.933Z,8.57
2023-01-13T17:55:00.429Z,8.57
2023-01-13T17:57:30.835Z,8.59
2023-01-13T18:00:01.374Z,8.61
2023-01-13T18:02:33.374Z,8.60
2023-01-13T18:05:03.953Z,8.58
2023-01-13T18:07:35.481Z,8.68
2023-01-13T18:10:07.215Z,8.67
2023-01-13T18:12:37.724Z,8.65
2023-01-13T18:15:09.208Z,8.73
2023-01-13T18:17:39.604Z,8.70
2023-01-13T18:20:30.718Z,8.69
2023-01-13T18:23:14.812Z,8.82
2023-01-13T18:26:04.269Z,8.79
2023-01-13T18:28:34.841Z,8.72
2023-01-13T18:31:07.051Z,8.56
2023-01-13T18:33:37.524Z,8.59
2023-01-13T18:36:09.304Z,8.71
2023-01-13T18:38:40.382Z,8.72
2023-01-13T18:41:29.885Z,8.74
2023-01-13T18:44:00.332Z,8.74
2023-01-13T18:46:30.939Z,8.86
2023-01-13T18:49:03.081Z,8.82
2023-01-13T18:51:33.518Z,8.89
2023-01-13T18:54:03.999Z,8.87
2023-01-13T18:56:36.047Z,8.86
2023-01-13T18:59:07.806Z,8.86
2023-01-13T19:01:38.921Z,8.82
2023-01-13T19:04:12.716Z,8.83
2023-01-13T19:06:47.165Z,8.88
2023-01-13T19:09:23.277Z,8.83
2023-01-13T19:11:54.204Z,8.87
2023-01-13T19:14:35.822Z,8.84
2023-01-13T19:17:12.365Z,8.84
2023-01-13T19:19:46.655Z,8.85
2023-01-13T19:22:30.234Z,8.80
2023-01-13T19:25:05.031Z,8.89
2023-01-13T19:27:36.810Z,8.82
2023-01-13T19:30:11.754Z,8.80
2023-01-13T19:32:42.451Z,8.82
2023-01-13T19:35:14.594Z,8.84
2023-01-13T19:37:46.753Z,8.86
2023-01-13T19:40:18.603Z,8.89
2023-01-13T19:43:06.934Z,8.82
2023-01-13T19:45:39.976Z,8.78
2023-01-13T19:48:11.356Z,8.77
2023-01-13T19:50:42.689Z,8.70
2023-01-13T19:53:17.619Z,8.69
2023-01-13T19:55:49.203Z,8.68
2023-01-13T19:58:21.097Z,8.72
2023-01-13T20:00:53.039Z,8.70
2023-01-13T20:03:28.379Z,8.60
2023-01-13T20:06:02.353Z,8.54
2023-01-13T20:08:32.805Z,8.58
2023-01-13T20:11:21.567Z,8.54
2023-01-13T20:13:55.116Z,8.66
2023-01-13T20:16:26.159Z,8.58
2023-01-13T20:18:57.192Z,8.54
2023-01-13T20:21:30.516Z,8.53
2023-01-13T20:24:01.953Z,8.54
2023-01-13T20:26:32.615Z,8.44
2023-01-13T20:29:06.257Z,8.62
2023-01-13T20:31:36.702Z,8.59
2023-01-13T20:34:07.193Z,8.52
2023-01-13T20:36:40.786Z,8.57
2023-01-13T20:39:25.263Z,8.58
2023-01-13T20:42:14.179Z,8.60
2023-01-13T20:44:46.285Z,8.56
2023-01-13T20:47:19.806Z,8.58
2023-01-13T20:49:53.532Z,8.53
2023-01-13T20:52:27.011Z,8.55
2023-01-13T20:54:57.658Z,8.60
2023-01-13T20:57:28.487Z,8.54
2023-01-13T21:00:01.325Z,8.61
2023-01-13T21:02:31.876Z,8.50
2023-01-13T21:05:03.942Z,8.43
2023-01-13T21:07:35.636Z,8.48
2023-01-13T21:10:06.457Z,8.49
2023-01-13T21:12:54.961Z,8.56
2023-01-13T21:15:25.825Z,8.42
2023-01-13T21:18:14.351Z,8.50
2023-01-13T21:20:45.875Z,8.46
2023-01-13T21:23:16.267Z,8.48
2023-01-13T21:25:46.776Z,8.36
2023-01-13T21:28:19.842Z,8.26
2023-01-13T21:30:52.388Z,8.16
2023-01-13T21:33:24.337Z,8.10
2023-01-13T21:35:56.320Z,8.03
2023-01-13T21:38:31.176Z,8.03
2023-01-13T21:41:07.130Z,8.00
2023-01-13T21:43:57.067Z,7.97
2023-01-13T21:46:45.818Z,8.08
2023-01-13T21:49:16.378Z,8.04
2023-01-13T21:51:48.193Z,8.08
2023-01-13T21:54:18.626Z,8.18
2023-01-13T21:56:50.585Z,8.12
2023-01-13T21:59:22.858Z,8.22
2023-01-13T22:02:23.071Z,8.28
2023-01-13T22:04:28.415Z,8.26
2023-01-13T22:07:00.528Z,8.27
2023-01-13T22:09:31.897Z,8.26
2023-01-13T22:12:06.887Z,8.26
2023-01-13T22:14:38.388Z,8.23
2023-01-13T22:17:09.641Z,8.42
2023-01-13T22:19:46.113Z,9.86
2023-01-13T22:22:21.116Z,10.22
2023-01-13T22:24:54.348Z,9.54
2023-01-13T22:27:29.048Z,9.14
2023-01-13T22:30:03.938Z,8.74
2023-01-13T22:32:39.394Z,8.66
2023-01-13T22:35:11.660Z,8.41
2023-01-13T22:37:43.735Z,8.27
2023-01-13T22:40:14.656Z,8.12
2023-01-13T22:42:48.007Z,8.08
2023-01-13T22:45:18.414Z,8.22
2023-01-13T22:47:53.864Z,8.26
2023-01-13T22:50:24.286Z,8.12
2023-01-13T22:52:58.226Z,8.21
2023-01-13T22:55:28.625Z,8.17
2023-01-13T22:58:00.793Z,8.10
2023-01-13T23:00:31.364Z,8.06
2023-01-13T23:03:02.054Z,7.94
2023-01-13T23:05:33.829Z,7.95
2023-01-13T23:08:11.738Z,7.92
2023-01-13T23:10:47.304Z,7.87
2023-01-13T23:13:16.336Z,7.91
2023-01-13T23:15:46.849Z,7.84
2023-01-13T23:18:18.662Z,7.82
2023-01-13T23:20:53.716Z,7.78
2023-01-13T23:23:25.430Z,7.87
2023-01-13T23:25:58.585Z,7.87
2023-01-13T23:28:31.015Z,7.88
2023-01-13T23:31:04.132Z,7.90
2023-01-13T23:33:36.852Z,7.84
2023-01-13T23:36:09.141Z,7.78
2023-01-13T23:38:41.371Z,7.89
2023-01-13T23:41:17.138Z,7.85
2023-01-13T23:43:56.765Z,7.82
2023-01-13T23:46:30.195Z,7.78
2023-01-13T23:49:02.463Z,7.78
2023-01-13T23:51:34.585Z,7.77
2023-01-13T23:54:05.167Z,7.76
2023-01-13T23:56:38.404Z,7.78
2023-01-13T23:59:10.500Z,7.67
